Moyenne Distance Poligny (77) - G

Date : 19/03/2011
Distance : 2,500 km

Place Nom Licence Catégorie Club Temps min/km CN à J-60 Points Différence Nouveau CN
1 DEVILLE Nelly 2401 D60 5402LO 0:32:38 13'03 4368 5024 +656 4511
2 PIGER Albert 116 H70 4504CE 0:38:17 15'18 3584 4282 +698 3681
3 SINIBALDI Marc 1347 H65 3801RA 0:38:56 15'34 5008 4211 -797 5008
4 OUDIN M-Reine 7574 D60 6804AL 0:39:13 15'41 3698 4180 +482 3726
5 GANDON J-Claude 249 H70 6906RA 0:39:27 15'46 3833 4156 +323 3955
6 LABEUR Roselyne 905 D60 7707IF 0:40:18 16'07 2768 4068 +1300 2768
7 DIEUDONNE Madeleine 1380 D60 7808IF 0:41:28 16'35 3928 3954 +26 3926
8 BERGER M-Jose 7182 D60 5703LO 0:44:10 17'40 3252 3712 +460 3252
9 ANTOINE Regis 1276 H70 7108BO 0:44:55 17'58 3679 3650 -29 3712
10 CHALOPIN Catherine 3674 D60 2105BO 0:45:18 18'07 3763 3619 -144 3763
11 POGU Paulette 4671 D60 5402LO 0:46:38 18'39 2951 3516 +565 2992
12 HELIOT Claude 2349 H70 2604RA 0:47:08 18'51 4152 3478 -674 4152
13 RIFFARD J-Claude 2445 H70 5702LO 0:47:17 18'54 2854 3467 +613 2883
14 RICHARD Nicole 14245 D60 0207PI 0:49:06 19'38 3274 3339 +65 3317
15 TESTOUD Philippe 935 H70 7707IF 0:49:50 19'56 3106 3290 +184 3215
16 LEFOUEST Joseph 1000 H70 2904BR 0:50:30 20'12 3396 3246 -150 3396
17 FRANTZ Francoise 6886 D60 2904BR 0:50:40 20'16 3710 3236 -474 3710
18 DESAINTJAN Claude 2547 H70 6804AL 0:51:38 20'39 2738 3175 +437 2900
19 EUZEN J-Paul 16403 H70 6911RA 0:55:26 22'10 3804 2957 -847 3804
20 ABISSE Gisele 701 D65 2508FC 0:57:10 22'52 3000 2868 -132 3025
21 POUPIER Claudine 13991 D60 7203PL 1:01:16 24'30 2139 2676 +537 2244
22 COCAUT Yvonne 5497 D65 5604BR 1:01:43 24'41 2832 2656 -176 2832
23 LEMERCIER Jocelyne 2474 D60 5407LO 1:02:04 24'49 2752 2641 -111 2752
24 ENARD Monique 2664 D60 2101BO 1:02:45 25'06 3466 2613 -853 3466
25 RUAUD Agnes 739 D60 2508FC 1:04:43 25'53 2447 2533 +86 2495
26 GUETIN Michel 2674 H70 2101BO 1:05:11 26'04 2937 2515 -422 2937
27 CABON Monique 96 D60 2904BR 1:05:28 26'11 2879 2504 -375 2879
28 LARMINACH Genevieve 647 D65 3308AQ 1:05:38 26'15 2532 2498 -34 2558
29 DODIN Genevieve 4392 D60 8809LO 1:06:01 26'24 2315 2483 +168 2427
30 BELDOWSKI Andrew 18509 H70 2208BR 1:07:12 26'52 2635 2440 -195 2635
31 GAWSEWITCH Gerald 3370 H70 7707IF 1:09:29 27'47 1786 2359 +573 1982
32 LEFOUEST M-Therese 1001 D70 2904BR 1:11:55 28'46 2260 2280 +20 2288
33 PIGER Ghislaine 117 D70 4504CE 1:13:18 29'19 2403 2237 -166 2403
34 LAUNEY Noella 11368 D70 7203PL 1:15:37 30'14 2074 2168 +94 2095
35 GUICHARDON Georges 570 H70 4504CE 1:18:20 31'20 2289 2093 -196 2365
36 BIGOT Yvette 6980 D70 8903BO 1:22:00 32'48 1525 1999 +474 1557
37 RIFFARD M-Lucie 2446 D65 5702LO 1:25:36 34'14 2875 1915 -960 2875
38 THIEBAULT M-Paule 4490 D60 6804AL 1:34:06 37'38 2003 1742 -261 2003
39 VESCOVO Odile 368 D65 6803AL 1:34:42 37'52 2306 1731 -575 2306
40 LAZAROWICZ Rose-Marie 3598 D60 7512IF 1:35:51 38'20 1746 1710 -36 1815
41 BASTIEN-FATH Nicole 8954 D65 5402LO 1:37:06 38'50 2265 1688 -577 2265
42 ALLANCON Claudine 14632 D60 2906BR 1:40:15 40'06 2103 1635 -468 2103
CROCHET Gerard 2817 H70 1705PC pm None 4185 0 4185
ROBERT Martine 1087 D60 7004FC pm None 3643 0 3643
LUDEWIG-JAMES Carol 15894 D70 5907NO pm None 2160 0 2302
DESAINTJAN Alice 2546 D70 6804AL pm None 1545 0 1545